Time;durP1;ratioP1;P1;durP2;ratioP2;P2;SDS_P1;SDS_P2;PMS_P1;PMS_P2;Temp;Humidity;BMP_temperature;BMP_pressure;BME280_temperature;BME280_humidity;BME280_pressure;Samples;Min_cycle;Max_cycle;Signal;HPM_P1;HPM_P2
2022/01/15 00:01:41;;;;;;;100.82;54.80;;;0.30;99.90;;;;;;6126198;23;20010;-93
2022/01/15 00:04:07;;;;;;;88.65;50.42;;;0.30;99.90;;;;;;6100514;23;20002;-94
2022/01/15 00:06:33;;;;;;;91.60;50.45;;;0.30;99.90;;;;;;6100766;23;20006;-93
2022/01/15 00:08:58;;;;;;;89.57;49.95;;;0.30;99.90;;;;;;6126833;23;20012;-94
2022/01/15 00:11:24;;;;;;;89.40;50.30;;;0.20;99.90;;;;;;6100307;23;20012;-94
2022/01/15 00:14:08;;;;;;;84.15;48.63;;;0.20;99.90;;;;;;6126137;23;20092;-93
2022/01/15 00:16:45;;;;;;;88.47;51.03;;;0.20;99.90;;;;;;6127072;23;20014;-93
2022/01/15 00:19:13;;;;;;;96.28;54.28;;;0.10;99.90;;;;;;6127120;23;20010;-94
2022/01/15 00:21:39;;;;;;;95.18;51.63;;;0.10;99.90;;;;;;6127287;23;20428;-94
2022/01/15 00:24:06;;;;;;;177.27;57.80;;;-0.10;99.90;;;;;;6100475;23;20009;-94
2022/01/15 00:26:32;;;;;;;93.43;51.13;;;-0.10;99.90;;;;;;6125946;23;20056;-93
2022/01/15 00:28:58;;;;;;;94.20;52.22;;;-0.10;99.90;;;;;;6101047;23;20002;-93
2022/01/15 00:31:24;;;;;;;107.82;55.60;;;0.00;99.90;;;;;;6126351;23;20013;-94
2022/01/15 00:33:50;;;;;;;105.22;51.90;;;0.10;99.90;;;;;;6126696;23;20006;-93
2022/01/15 00:36:16;;;;;;;93.80;50.72;;;0.10;99.90;;;;;;6100718;23;20084;-93
2022/01/15 00:38:42;;;;;;;100.13;50.45;;;0.10;99.90;;;;;;6100786;23;20600;-93
2022/01/15 00:41:08;;;;;;;101.65;55.42;;;0.20;99.90;;;;;;6100611;23;20044;-94
2022/01/15 00:43:33;;;;;;;116.30;54.03;;;0.30;99.90;;;;;;6126659;23;19998;-94
2022/01/15 00:45:59;;;;;;;109.10;57.40;;;0.40;99.90;;;;;;6101361;23;20017;-92
2022/01/15 00:48:26;;;;;;;102.13;51.92;;;0.60;99.90;;;;;;6100074;23;20103;-94
2022/01/15 00:50:51;;;;;;;111.40;50.25;;;0.40;99.90;;;;;;6126804;23;20006;-94
2022/01/15 00:53:17;;;;;;;105.00;53.58;;;0.40;99.90;;;;;;6100552;23;20016;-94
2022/01/15 00:55:43;;;;;;;105.18;53.40;;;0.20;99.90;;;;;;6126028;23;20017;-93
2022/01/15 00:58:08;;;;;;;113.38;54.08;;;0.40;99.90;;;;;;6127094;23;20493;-93
2022/01/15 01:00:35;;;;;;;118.00;55.45;;;0.50;99.90;;;;;;6126284;23;20343;-93
2022/01/15 01:03:00;;;;;;;114.63;55.22;;;0.50;99.90;;;;;;6125863;23;20017;-94
2022/01/15 01:05:26;;;;;;;111.38;52.45;;;0.60;99.90;;;;;;6126723;23;20006;-93
2022/01/15 01:07:52;;;;;;;107.80;51.67;;;0.50;99.90;;;;;;6100678;23;20002;-93
2022/01/15 01:23:19;;;;;;;219.40;54.60;;;0.60;99.90;;;;;;6126213;23;20006;-93
2022/01/15 01:25:48;;;;;;;219.40;53.63;;;0.40;99.90;;;;;;6126048;23;20026;-94
2022/01/15 01:28:23;;;;;;;573.25;62.55;;;0.40;99.90;;;;;;6126549;23;20369;-93
2022/01/15 01:30:57;;;;;;;218.45;53.72;;;0.30;99.90;;;;;;6126043;23;20029;-94
2022/01/15 01:36:03;;;;;;;165.85;54.53;;;0.60;99.90;;;;;;6126117;23;20051;-93
2022/01/15 01:38:34;;;;;;;211.00;51.92;;;0.60;99.90;;;;;;6100072;23;20542;-94
2022/01/15 01:41:01;;;;;;;218.52;53.58;;;0.20;99.90;;;;;;6126497;23;20010;-93
2022/01/15 01:47:13;;;;;;;391.70;58.45;;;0.30;99.90;;;;;;6125815;23;20006;-93
2022/01/15 01:49:01;;;;;;;272.70;60.30;;;0.10;99.90;;;;;;6106465;23;20026;-93
2022/01/15 01:51:39;;;;;;;221.18;58.45;;;0.00;99.90;;;;;;6126583;23;20006;-93
2022/01/15 01:54:08;;;;;;;193.48;54.22;;;0.10;99.90;;;;;;6125702;23;20003;-93
2022/01/15 01:56:34;;;;;;;123.57;54.47;;;0.10;99.90;;;;;;6126397;23;20065;-93
2022/01/15 01:59:00;;;;;;;126.20;51.55;;;0.20;99.90;;;;;;6126091;23;20110;-94
2022/01/15 02:01:26;;;;;;;194.52;52.03;;;0.10;99.90;;;;;;6125553;23;20010;-93
2022/01/15 02:03:53;;;;;;;212.45;54.30;;;0.40;99.90;;;;;;6126051;23;20377;-93
2022/01/15 02:06:19;;;;;;;543.00;66.13;;;-0.10;99.90;;;;;;6099990;23;20006;-93
2022/01/15 02:08:46;;;;;;;394.65;59.42;;;0.00;99.90;;;;;;6126288;23;20033;-93
2022/01/15 02:11:13;;;;;;;195.23;54.85;;;-0.20;99.90;;;;;;6127513;23;20440;-94
2022/01/15 02:13:41;;;;;;;613.38;71.65;;;-0.10;99.90;;;;;;6102220;23;20037;-94
2022/01/15 02:16:07;;;;;;;250.68;55.47;;;-0.10;99.90;;;;;;6101679;23;20022;-93
2022/01/15 02:18:34;;;;;;;257.55;55.33;;;0.10;99.90;;;;;;6101913;23;20002;-94
2022/01/15 02:23:44;;;;;;;123.45;51.97;;;-0.10;99.90;;;;;;6127773;23;20002;-94
2022/01/15 02:26:18;;;;;;;226.48;54.80;;;0.10;99.90;;;;;;6128333;23;20330;-93
2022/01/15 02:28:59;;;;;;;164.48;53.22;;;0.00;99.90;;;;;;6101783;23;20041;-94
2022/01/15 02:31:26;;;;;;;140.18;54.33;;;0.10;99.90;;;;;;6127056;23;20441;-94
2022/01/15 02:33:53;;;;;;;152.75;53.63;;;0.00;99.90;;;;;;6127939;23;20030;-93
2022/01/15 02:36:30;;;;;;;201.88;54.22;;;-0.10;99.90;;;;;;6128385;23;20022;-93
2022/01/15 02:38:57;;;;;;;168.73;54.25;;;-0.20;99.90;;;;;;6101818;23;20117;-93
2022/01/15 02:41:31;;;;;;;359.90;57.20;;;-0.30;99.90;;;;;;6127799;23;20005;-93
2022/01/15 02:43:58;;;;;;;479.65;62.65;;;-0.40;99.90;;;;;;6127509;23;20010;-93
2022/01/15 02:48:54;;;;;;;275.92;53.88;;;-0.40;99.90;;;;;;6127404;23;20491;-93
2022/01/15 02:51:22;;;;;;;228.75;51.97;;;-0.30;99.90;;;;;;6100878;23;20093;-93
2022/01/15 02:53:54;;;;;;;284.98;55.58;;;-0.20;99.90;;;;;;6101632;23;20017;-94
2022/01/15 02:56:24;;;;;;;255.95;53.67;;;-0.20;99.90;;;;;;6127952;23;20057;-93
2022/01/15 02:58:50;;;;;;;158.18;50.80;;;-0.20;99.90;;;;;;6101138;23;20009;-94
2022/01/15 03:01:15;;;;;;;255.18;53.28;;;0.00;99.90;;;;;;6101429;23;20006;-93
2022/01/15 03:03:41;;;;;;;158.32;48.22;;;0.00;99.90;;;;;;6101543;23;20334;-92
2022/01/15 03:06:13;;;;;;;460.80;58.67;;;-0.20;99.90;;;;;;6101451;23;20029;-94
2022/01/15 03:08:41;;;;;;;264.67;51.70;;;-0.20;99.90;;;;;;6101283;23;20006;-94
2022/01/15 03:11:07;;;;;;;167.35;48.15;;;-0.30;99.90;;;;;;6127592;23;20021;-94
2022/01/15 03:13:33;;;;;;;217.88;50.83;;;-0.40;99.90;;;;;;6126795;23;20006;-93
2022/01/15 03:15:59;;;;;;;401.02;55.85;;;-0.30;99.90;;;;;;6127522;23;20127;-92
2022/01/15 03:18:25;;;;;;;244.32;52.47;;;0.20;99.90;;;;;;6101284;23;20006;-92
2022/01/15 03:20:50;;;;;;;112.05;47.03;;;0.00;99.90;;;;;;6126602;23;20081;-93
2022/01/15 03:23:16;;;;;;;307.58;49.72;;;-0.20;99.90;;;;;;6127105;23;20102;-93
2022/01/15 03:25:42;;;;;;;295.52;49.33;;;-0.30;99.90;;;;;;6101831;23;20415;-93
2022/01/15 03:28:09;;;;;;;193.27;48.65;;;-0.20;99.90;;;;;;6126473;23;20010;-92
2022/01/15 03:30:34;;;;;;;240.40;47.75;;;-0.30;99.90;;;;;;6127596;23;20010;-93
2022/01/15 03:33:00;;;;;;;288.02;47.78;;;-0.50;99.90;;;;;;6101266;23;20006;-94
2022/01/15 03:35:26;;;;;;;407.65;52.25;;;-0.60;99.90;;;;;;6100932;23;20024;-93
2022/01/15 03:37:51;;;;;;;380.73;50.47;;;0.00;99.90;;;;;;6127693;23;20061;-93
2022/01/15 03:40:17;;;;;;;112.55;45.40;;;-0.40;99.90;;;;;;6126417;23;20020;-94
2022/01/15 03:42:46;;;;;;;192.77;46.70;;;0.20;99.90;;;;;;6126794;23;20002;-93
2022/01/15 03:45:14;;;;;;;245.00;49.03;;;-0.20;99.90;;;;;;6126775;23;20492;-93
2022/01/15 03:47:41;;;;;;;164.10;46.78;;;-0.40;99.90;;;;;;6126911;23;20357;-93
2022/01/15 03:50:07;;;;;;;175.90;48.15;;;-0.60;99.90;;;;;;6126833;23;20049;-94
2022/01/15 03:52:33;;;;;;;157.82;46.45;;;-0.70;99.90;;;;;;6126205;23;20452;-93
2022/01/15 03:54:58;;;;;;;268.75;48.95;;;-0.50;99.90;;;;;;6101784;23;20014;-93
2022/01/15 03:57:24;;;;;;;293.48;47.78;;;-0.40;99.90;;;;;;6125827;23;20017;-93
2022/01/15 03:59:50;;;;;;;178.20;46.00;;;-0.50;99.90;;;;;;6126755;23;20033;-93
2022/01/15 04:02:15;;;;;;;153.70;47.78;;;-0.70;99.90;;;;;;6126622;23;19998;-93
2022/01/15 04:04:41;;;;;;;148.18;45.63;;;-0.50;99.90;;;;;;6126922;23;20069;-93
2022/01/15 04:07:07;;;;;;;140.82;45.45;;;-0.40;99.90;;;;;;6100972;23;20005;-94
2022/01/15 04:09:33;;;;;;;181.95;47.35;;;-0.50;99.90;;;;;;6100658;23;20008;-93
2022/01/15 04:11:58;;;;;;;178.50;47.53;;;-0.30;99.90;;;;;;6126138;23;20014;-93
2022/01/15 04:14:24;;;;;;;371.92;51.15;;;-0.40;99.90;;;;;;6100326;23;20013;-94
2022/01/15 04:16:50;;;;;;;496.98;54.50;;;-0.50;99.90;;;;;;6101062;23;20041;-94
2022/01/15 04:19:16;;;;;;;217.63;46.03;;;-0.50;99.90;;;;;;6126053;23;20417;-93
2022/01/15 04:21:41;;;;;;;130.70;45.70;;;-0.60;99.90;;;;;;6126777;23;20009;-93
2022/01/15 04:24:07;;;;;;;102.40;44.45;;;-0.60;99.90;;;;;;6126191;23;20037;-94
2022/01/15 04:26:33;;;;;;;161.93;46.47;;;-0.60;99.90;;;;;;6100198;23;20014;-94
2022/01/15 04:29:08;;;;;;;106.05;44.97;;;-0.40;99.90;;;;;;6100999;23;20032;-93
2022/01/15 04:31:47;;;;;;;106.28;46.10;;;-0.30;99.90;;;;;;6126301;23;20060;-93
2022/01/15 04:34:20;;;;;;;95.47;44.80;;;-0.30;99.90;;;;;;6125833;23;20016;-94
2022/01/15 04:36:47;;;;;;;91.18;43.83;;;-0.20;99.90;;;;;;6126400;23;20017;-93
2022/01/15 04:39:13;;;;;;;93.72;43.75;;;-0.20;99.90;;;;;;6126301;23;20009;-93
2022/01/15 04:41:39;;;;;;;132.35;46.33;;;-0.10;99.90;;;;;;6125988;23;20021;-93
2022/01/15 04:44:05;;;;;;;111.90;43.53;;;-0.10;99.90;;;;;;6100441;23;20002;-94
2022/01/15 04:46:33;;;;;;;112.60;43.17;;;-0.50;99.90;;;;;;6125780;23;20016;-93
2022/01/15 04:48:58;;;;;;;131.60;45.92;;;-0.30;99.90;;;;;;6100229;23;20014;-93
2022/01/15 04:51:24;;;;;;;104.20;46.33;;;-0.30;99.90;;;;;;6126349;23;20006;-93
2022/01/15 04:53:49;;;;;;;128.40;46.60;;;-0.20;99.90;;;;;;6126328;23;20361;-93
2022/01/15 04:56:15;;;;;;;130.85;45.65;;;-0.30;99.90;;;;;;6126358;23;20014;-93
2022/01/15 04:58:41;;;;;;;194.18;46.53;;;-0.30;99.90;;;;;;6100326;23;20006;-94
2022/01/15 05:01:06;;;;;;;204.18;46.20;;;-0.60;99.90;;;;;;6099711;23;20014;-93
2022/01/15 05:03:35;;;;;;;144.95;46.30;;;-0.70;99.90;;;;;;6125237;23;20056;-93
2022/01/15 05:06:00;;;;;;;141.55;44.25;;;-0.60;99.90;;;;;;6100146;23;20397;-93
2022/01/15 05:08:26;;;;;;;153.30;46.38;;;-0.70;99.90;;;;;;6100610;23;20092;-93
2022/01/15 05:10:54;;;;;;;149.43;46.33;;;-0.60;99.90;;;;;;6100470;23;20006;-94
2022/01/15 05:13:26;;;;;;;125.80;45.40;;;-1.20;99.90;;;;;;6125007;23;20077;-94
2022/01/15 05:15:52;;;;;;;113.25;44.60;;;-0.90;99.90;;;;;;6100268;23;20014;-93
2022/01/15 05:18:18;;;;;;;126.97;45.17;;;-0.60;99.90;;;;;;6126112;23;20006;-93
2022/01/15 05:20:45;;;;;;;106.07;44.97;;;-0.40;99.90;;;;;;6125827;23;20006;-93
2022/01/15 05:23:11;;;;;;;117.88;44.95;;;-0.60;99.90;;;;;;6127035;23;20006;-94
2022/01/15 05:25:37;;;;;;;102.10;43.28;;;-1.10;99.90;;;;;;6127125;23;20013;-93
2022/01/15 05:28:03;;;;;;;109.15;44.35;;;-0.80;99.90;;;;;;6125057;23;20002;-94
2022/01/15 05:30:31;;;;;;;93.15;45.28;;;-1.00;99.90;;;;;;6100627;23;20010;-93
2022/01/15 05:32:58;;;;;;;103.70;45.53;;;-1.00;99.90;;;;;;6100043;23;20016;-93
2022/01/15 05:35:26;;;;;;;101.40;46.25;;;-0.90;99.90;;;;;;6125644;23;20030;-93
2022/01/15 05:37:56;;;;;;;100.13;45.25;;;-0.90;99.90;;;;;;6126799;23;20508;-94
2022/01/15 05:40:23;;;;;;;179.55;46.03;;;-0.70;99.90;;;;;;6100419;23;20017;-93
2022/01/15 05:42:49;;;;;;;111.40;48.63;;;-0.80;99.90;;;;;;6100635;23;20059;-93
2022/01/15 05:45:14;;;;;;;98.25;46.55;;;-0.70;99.90;;;;;;6101782;23;20010;-93
2022/01/15 05:47:40;;;;;;;96.80;44.75;;;-0.70;99.90;;;;;;6127180;23;20040;-93
2022/01/15 05:50:07;;;;;;;108.68;47.08;;;-0.80;99.90;;;;;;6127279;23;20038;-93
2022/01/15 05:52:32;;;;;;;103.32;45.17;;;-0.70;99.90;;;;;;6128349;23;20081;-93
2022/01/15 05:54:58;;;;;;;92.50;43.78;;;-0.90;99.90;;;;;;6127553;23;20049;-93
2022/01/15 05:57:24;;;;;;;97.72;45.03;;;-0.80;99.90;;;;;;6128332;23;20445;-93
2022/01/15 05:59:51;;;;;;;89.95;43.22;;;-1.10;99.90;;;;;;6127863;23;20029;-93
2022/01/15 06:02:21;;;;;;;87.30;44.75;;;-1.00;99.90;;;;;;6128129;23;20013;-93
2022/01/15 06:04:48;;;;;;;86.82;45.03;;;-1.20;99.90;;;;;;6101644;23;20017;-93
2022/01/15 06:07:13;;;;;;;81.57;43.88;;;-1.20;99.90;;;;;;6128191;23;20001;-93
2022/01/15 06:09:39;;;;;;;82.18;45.67;;;-1.10;99.90;;;;;;6128092;23;20009;-93
2022/01/15 06:12:05;;;;;;;83.22;45.63;;;-1.10;99.90;;;;;;6127942;23;20006;-93
2022/01/15 06:14:31;;;;;;;83.68;44.78;;;-1.00;99.90;;;;;;6127888;23;20026;-93
2022/01/15 06:17:00;;;;;;;89.90;45.25;;;-1.00;99.90;;;;;;6127485;23;20017;-93
2022/01/15 06:19:26;;;;;;;84.95;44.15;;;-1.10;99.90;;;;;;6101718;23;20006;-92
2022/01/15 06:21:52;;;;;;;83.05;44.20;;;-1.20;99.90;;;;;;6128374;23;20006;-93
2022/01/15 06:24:19;;;;;;;83.93;43.25;;;-1.30;99.90;;;;;;6101925;23;20048;-93
2022/01/15 06:26:45;;;;;;;94.80;46.83;;;-1.40;99.90;;;;;;6102008;23;20029;-94
2022/01/15 06:29:10;;;;;;;97.85;46.15;;;-1.40;99.90;;;;;;6101633;23;20028;-93
2022/01/15 06:31:36;;;;;;;91.90;45.53;;;-1.40;99.90;;;;;;6127174;23;20128;-92
2022/01/15 06:34:03;;;;;;;86.95;45.08;;;-1.40;99.90;;;;;;6127646;23;20061;-94
2022/01/15 06:36:28;;;;;;;104.90;46.45;;;-1.50;99.90;;;;;;6127562;23;20017;-93
2022/01/15 06:38:54;;;;;;;89.85;45.22;;;-1.30;99.90;;;;;;6101932;23;20006;-93
2022/01/15 06:41:20;;;;;;;201.55;49.85;;;-1.20;99.90;;;;;;6102001;23;20005;-93
2022/01/15 06:43:45;;;;;;;104.45;48.08;;;-1.20;99.90;;;;;;6127633;23;20037;-93
2022/01/15 06:46:11;;;;;;;156.82;47.88;;;-1.20;99.90;;;;;;6101262;23;20002;-93
2022/01/15 06:48:37;;;;;;;137.32;46.70;;;-1.20;99.90;;;;;;6128048;23;20042;-93
2022/01/15 06:51:03;;;;;;;98.22;45.25;;;-1.30;99.90;;;;;;6127576;23;20013;-93
2022/01/15 06:53:31;;;;;;;139.90;47.38;;;-1.30;99.90;;;;;;6101336;23;20018;-93
2022/01/15 06:55:57;;;;;;;81.57;43.38;;;-1.00;99.90;;;;;;6101533;23;20014;-93
2022/01/15 06:58:23;;;;;;;97.60;43.53;;;-1.00;99.90;;;;;;6127298;23;20009;-93
2022/01/15 07:00:49;;;;;;;81.95;41.47;;;-1.10;99.90;;;;;;6127163;23;20010;-93
2022/01/15 07:03:15;;;;;;;78.28;38.33;;;-1.10;99.90;;;;;;6100480;23;20317;-93
2022/01/15 07:05:41;;;;;;;70.13;38.45;;;-1.20;99.90;;;;;;6101136;23;20089;-93
2022/01/15 07:08:07;;;;;;;76.45;39.30;;;-1.20;99.90;;;;;;6128157;23;20365;-93
2022/01/15 07:10:34;;;;;;;72.93;38.38;;;-1.00;99.90;;;;;;6127167;23;20005;-93
2022/01/15 07:12:59;;;;;;;78.68;40.78;;;-0.90;99.90;;;;;;6126836;23;20002;-93
2022/01/15 07:15:25;;;;;;;80.00;39.78;;;-0.80;99.90;;;;;;6127219;23;20017;-93
2022/01/15 07:17:51;;;;;;;91.10;39.83;;;-0.90;99.90;;;;;;6101356;23;20006;-93
2022/01/15 07:20:18;;;;;;;78.20;38.72;;;-0.30;99.90;;;;;;6126782;23;20334;-93
2022/01/15 07:22:44;;;;;;;85.88;41.28;;;-0.80;99.90;;;;;;6127995;23;20374;-93
2022/01/15 07:25:11;;;;;;;78.95;38.47;;;-0.80;99.90;;;;;;6127295;23;20005;-93
2022/01/15 07:27:38;;;;;;;77.88;38.10;;;-0.80;99.90;;;;;;6101938;23;20365;-93
2022/01/15 07:30:06;;;;;;;77.18;37.97;;;-0.80;99.90;;;;;;6126743;23;20002;-93
2022/01/15 07:32:31;;;;;;;68.60;36.97;;;-0.60;99.90;;;;;;6100759;23;20002;-93
2022/01/15 07:34:57;;;;;;;85.93;41.22;;;-0.70;99.90;;;;;;6126923;23;20010;-93
2022/01/15 07:37:23;;;;;;;78.93;39.63;;;-0.80;99.90;;;;;;6126813;23;20085;-92
2022/01/15 07:39:49;;;;;;;81.95;39.10;;;-1.10;99.90;;;;;;6127559;23;20033;-92
2022/01/15 07:42:15;;;;;;;79.50;39.17;;;-1.00;99.90;;;;;;6126991;23;20053;-93
2022/01/15 07:44:40;;;;;;;82.18;39.47;;;-0.90;99.90;;;;;;6127228;23;20017;-93
2022/01/15 07:47:07;;;;;;;81.93;40.15;;;-0.70;99.90;;;;;;6100691;23;20006;-92
2022/01/15 07:49:32;;;;;;;85.47;40.08;;;-0.70;99.90;;;;;;6126567;23;20033;-93
2022/01/15 07:51:59;;;;;;;104.32;42.65;;;-0.60;99.90;;;;;;6100978;23;20441;-93
2022/01/15 07:54:25;;;;;;;115.35;41.63;;;-0.60;99.90;;;;;;6100865;23;20017;-93
2022/01/15 07:56:54;;;;;;;90.53;39.65;;;-0.60;99.90;;;;;;6101064;23;20014;-93
2022/01/15 07:59:21;;;;;;;83.15;40.38;;;-0.60;99.90;;;;;;6126942;23;20081;-93
2022/01/15 08:01:46;;;;;;;91.35;42.90;;;-0.50;99.90;;;;;;6100289;23;20032;-94
2022/01/15 08:04:12;;;;;;;84.43;42.13;;;-0.60;99.90;;;;;;6126985;23;20002;-94
2022/01/15 08:06:40;;;;;;;87.68;41.67;;;-0.60;99.90;;;;;;6101146;23;20005;-93
2022/01/15 08:09:06;;;;;;;88.65;43.00;;;-0.50;99.90;;;;;;6126537;23;20002;-93
2022/01/15 08:11:31;;;;;;;90.35;42.45;;;-0.40;99.90;;;;;;6100342;23;20006;-93
2022/01/15 08:13:57;;;;;;;134.32;43.33;;;0.00;99.90;;;;;;6100465;23;20029;-93
2022/01/15 08:16:22;;;;;;;120.90;42.83;;;-0.60;99.90;;;;;;6125985;23;20022;-93
2022/01/15 08:18:48;;;;;;;97.93;42.40;;;-0.70;99.90;;;;;;6126247;23;20082;-93
2022/01/15 08:21:14;;;;;;;89.78;42.38;;;-0.60;99.90;;;;;;6126734;23;20006;-93
2022/01/15 08:23:39;;;;;;;92.70;42.45;;;-0.60;99.90;;;;;;6125950;23;20002;-93
2022/01/15 08:26:05;;;;;;;90.82;44.30;;;-0.40;99.90;;;;;;6126817;23;20054;-92
2022/01/15 08:28:31;;;;;;;94.53;45.70;;;0.10;99.90;;;;;;6126898;23;20017;-92
2022/01/15 08:30:57;;;;;;;105.55;47.55;;;-0.20;99.90;;;;;;6125580;23;20009;-93
2022/01/15 08:33:22;;;;;;;94.95;46.55;;;-0.60;99.90;;;;;;6100264;23;20005;-93
2022/01/15 08:35:48;;;;;;;90.40;46.30;;;-0.20;99.90;;;;;;6126765;23;20041;-93
2022/01/15 08:38:13;;;;;;;99.28;48.17;;;-0.20;99.90;;;;;;6125814;23;20429;-93
2022/01/15 08:40:40;;;;;;;102.70;47.67;;;0.30;99.90;;;;;;6126505;23;20038;-93
2022/01/15 08:43:05;;;;;;;95.05;47.00;;;-0.40;99.90;;;;;;6126506;23;20426;-93
2022/01/15 08:45:31;;;;;;;88.65;46.78;;;-0.20;99.90;;;;;;6099363;23;20012;-93
2022/01/15 08:47:57;;;;;;;96.07;47.00;;;-0.10;99.90;;;;;;6125764;23;20010;-93
2022/01/15 08:50:24;;;;;;;96.07;47.25;;;0.00;99.90;;;;;;6126056;23;20468;-94
2022/01/15 08:52:50;;;;;;;101.70;49.25;;;0.20;99.90;;;;;;6126560;23;20010;-93
2022/01/15 08:55:17;;;;;;;87.65;46.15;;;0.30;99.90;;;;;;6100509;23;20017;-92
2022/01/15 08:57:44;;;;;;;83.22;43.97;;;0.40;99.90;;;;;;6126257;23;20429;-93
2022/01/15 09:00:13;;;;;;;95.75;46.70;;;0.70;99.90;;;;;;6126075;23;20385;-93
2022/01/15 09:02:39;;;;;;;87.25;44.92;;;1.00;99.90;;;;;;6126609;23;20002;-93
2022/01/15 09:05:06;;;;;;;86.05;45.55;;;1.10;99.90;;;;;;6100586;23;20010;-93
2022/01/15 09:07:31;;;;;;;94.15;45.55;;;1.30;99.90;;;;;;6125200;23;20080;-92
2022/01/15 09:09:57;;;;;;;89.18;45.50;;;1.70;99.90;;;;;;6126664;23;20033;-92
2022/01/15 09:12:23;;;;;;;88.25;46.47;;;1.70;99.90;;;;;;6100855;23;20066;-93
2022/01/15 09:14:52;;;;;;;85.53;44.42;;;1.30;99.90;;;;;;6099558;23;20017;-93
2022/01/15 09:17:19;;;;;;;86.82;44.20;;;1.40;99.90;;;;;;6125959;23;20016;-93
2022/01/15 09:19:44;;;;;;;85.78;45.65;;;2.20;99.90;;;;;;6100135;23;20006;-92
2022/01/15 09:22:11;;;;;;;88.10;45.50;;;4.90;94.30;;;;;;6100005;23;20147;-92
2022/01/15 09:24:38;;;;;;;79.13;43.28;;;7.20;64.00;;;;;;6100037;23;20009;-93
2022/01/15 09:30:12;;;;;;;80.97;43.33;;;7.10;58.40;;;;;;6100774;23;20044;-93
2022/01/15 09:32:34;;;;;;;82.47;44.28;;;7.20;65.10;;;;;;6126585;23;20013;-93
2022/01/15 09:35:00;;;;;;;91.28;47.30;;;6.90;55.10;;;;;;6125966;23;20009;-93
2022/01/15 09:37:26;;;;;;;83.47;45.38;;;6.90;60.70;;;;;;6124884;23;20006;-93
2022/01/15 09:39:52;;;;;;;88.43;46.60;;;4.80;73.20;;;;;;6125811;23;20012;-93
2022/01/15 09:42:21;;;;;;;84.90;46.10;;;3.80;85.00;;;;;;6100372;23;20006;-95
2022/01/15 09:44:48;;;;;;;80.88;45.70;;;3.10;93.10;;;;;;6100784;23;20013;-94
2022/01/15 09:47:15;;;;;;;89.70;44.33;;;3.10;96.20;;;;;;6126038;23;20010;-94
2022/01/15 09:49:45;;;;;;;83.43;44.28;;;2.50;97.60;;;;;;6126273;23;20006;-94
2022/01/15 09:52:12;;;;;;;78.18;43.60;;;2.30;99.50;;;;;;6126302;23;20014;-94
2022/01/15 09:54:39;;;;;;;87.20;44.78;;;2.10;99.90;;;;;;6099707;23;20006;-94
2022/01/15 09:57:06;;;;;;;82.97;44.75;;;2.10;99.90;;;;;;6100588;23;20006;-94
2022/01/15 09:59:31;;;;;;;82.47;45.22;;;2.50;99.90;;;;;;6100530;23;20006;-94
2022/01/15 10:02:02;;;;;;;84.60;43.88;;;2.30;99.90;;;;;;6100556;23;20030;-94
2022/01/15 10:04:31;;;;;;;85.25;44.50;;;2.90;99.90;;;;;;6126565;23;20005;-94
2022/01/15 10:07:11;;;;;;;80.05;44.85;;;3.20;97.90;;;;;;6125432;23;20006;-95
2022/01/15 10:09:37;;;;;;;78.68;43.78;;;3.10;97.90;;;;;;6100400;23;20013;-94
2022/01/15 10:12:04;;;;;;;83.00;42.72;;;2.90;98.20;;;;;;6100860;23;20118;-94
2022/01/15 10:14:41;;;;;;;77.47;42.55;;;3.00;97.70;;;;;;6126086;23;20010;-94
2022/01/15 10:17:23;;;;;;;73.20;40.22;;;2.70;99.70;;;;;;6100455;23;20010;-95
2022/01/15 10:19:50;;;;;;;73.18;41.33;;;3.00;98.30;;;;;;6125222;23;20425;-94
2022/01/15 10:22:24;;;;;;;70.72;39.20;;;3.00;98.00;;;;;;6100122;23;20010;-94
2022/01/15 10:25:00;;;;;;;77.47;41.08;;;3.30;97.70;;;;;;6126929;23;20033;-95
2022/01/15 10:27:35;;;;;;;74.20;41.15;;;3.80;94.70;;;;;;6120345;23;20002;-94
2022/01/15 10:30:10;;;;;;;71.30;42.47;;;4.30;92.60;;;;;;6126863;23;20038;-94
2022/01/15 10:32:50;;;;;;;70.72;40.70;;;4.50;91.30;;;;;;6128092;23;20002;-94
2022/01/15 10:35:17;;;;;;;72.13;38.58;;;4.20;91.70;;;;;;6119602;23;20054;-94
2022/01/15 10:37:48;;;;;;;68.60;41.65;;;4.10;93.80;;;;;;6128552;23;20024;-94
2022/01/15 10:40:14;;;;;;;77.03;42.75;;;3.70;94.50;;;;;;6101679;23;20013;-94
2022/01/15 10:42:49;;;;;;;84.15;44.13;;;4.00;93.20;;;;;;6101780;23;20493;-94
2022/01/15 10:45:16;;;;;;;73.22;41.63;;;4.40;94.30;;;;;;6101679;23;20058;-94
2022/01/15 10:47:49;;;;;;;76.35;42.28;;;3.10;96.30;;;;;;6127082;23;20104;-94
2022/01/15 10:50:36;;;;;;;79.72;43.00;;;3.50;97.40;;;;;;6101048;23;20010;-94
2022/01/15 10:53:07;;;;;;;76.00;43.58;;;2.90;98.00;;;;;;6128179;23;20006;-94
2022/01/15 10:55:34;;;;;;;73.68;40.17;;;3.10;99.10;;;;;;6102920;23;20018;-87
2022/01/15 10:58:02;;;;;;;80.55;43.25;;;2.80;98.00;;;;;;6124847;23;20463;-87
2022/01/15 11:00:31;;;;;;;85.03;43.42;;;2.90;99.10;;;;;;6125976;23;20130;-87
2022/01/15 11:03:08;;;;;;;87.90;41.28;;;2.80;98.20;;;;;;6124910;23;20436;-87
2022/01/15 11:05:36;;;;;;;79.75;40.90;;;2.80;99.90;;;;;;6124408;23;20077;-87
2022/01/15 11:08:04;;;;;;;73.85;39.33;;;2.70;99.90;;;;;;6125634;23;20025;-87
2022/01/15 11:10:52;;;;;;;68.35;39.65;;;2.30;99.90;;;;;;6125672;23;20005;-87
2022/01/15 11:13:22;;;;;;;65.95;38.13;;;2.40;99.90;;;;;;6125864;23;20441;-87
2022/01/15 11:15:50;;;;;;;68.32;38.47;;;2.40;99.90;;;;;;6098699;23;20381;-87
2022/01/15 11:18:23;;;;;;;78.88;40.20;;;2.50;99.90;;;;;;6124208;23;20009;-87
2022/01/15 11:20:54;;;;;;;68.82;39.33;;;2.90;99.90;;;;;;6125350;23;20373;-87
2022/01/15 11:23:21;;;;;;;67.47;40.38;;;3.00;99.90;;;;;;6124828;23;20002;-87
2022/01/15 11:25:49;;;;;;;72.68;40.80;;;3.50;99.90;;;;;;6125911;23;20002;-87
2022/01/15 11:28:17;;;;;;;72.35;40.10;;;3.70;99.50;;;;;;6125395;23;20341;-87
2022/01/15 11:30:45;;;;;;;82.75;42.10;;;3.00;99.20;;;;;;6098902;23;20500;-87
2022/01/15 11:33:12;;;;;;;72.10;40.22;;;3.80;99.20;;;;;;6124408;23;19998;-88
2022/01/15 11:35:45;;;;;;;73.88;39.70;;;3.50;97.50;;;;;;6125007;23;20096;-87
2022/01/15 11:38:11;;;;;;;74.03;40.15;;;3.20;99.90;;;;;;6125074;23;20058;-88
2022/01/15 11:40:40;;;;;;;70.13;40.83;;;2.70;99.40;;;;;;6124909;23;20001;-88
2022/01/15 11:43:24;;;;;;;62.00;38.47;;;3.30;99.60;;;;;;6125992;23;20025;-87
2022/01/15 11:45:51;;;;;;;61.53;38.75;;;2.90;99.90;;;;;;6125351;23;20006;-87
2022/01/15 11:48:23;;;;;;;67.47;37.95;;;3.00;99.90;;;;;;6123662;23;20515;-87
2022/01/15 11:51:14;;;;;;;65.07;37.80;;;2.80;99.90;;;;;;6124635;23;20076;-88
2022/01/15 11:54:00;;;;;;;80.78;37.97;;;2.90;99.90;;;;;;6124938;23;20089;-87
2022/01/15 11:56:38;;;;;;;65.00;38.28;;;2.70;99.90;;;;;;6125001;23;20018;-87
2022/01/15 11:59:25;;;;;;;67.75;38.63;;;2.80;99.90;;;;;;6125024;23;20001;-88
2022/01/15 12:02:02;;;;;;;75.47;42.20;;;2.80;99.90;;;;;;6123963;23;20380;-88
2022/01/15 12:04:35;;;;;;;91.47;41.42;;;2.60;99.90;;;;;;6125744;23;20006;-87
2022/01/15 12:07:01;;;;;;;72.22;40.22;;;2.30;99.90;;;;;;6124807;23;20002;-87
2022/01/15 12:09:50;;;;;;;68.97;38.60;;;2.70;99.90;;;;;;6124467;23;20006;-87
2022/01/15 12:12:19;;;;;;;80.38;38.55;;;2.50;99.90;;;;;;6125204;23;20345;-88
2022/01/15 12:14:58;;;;;;;76.85;40.72;;;2.50;99.90;;;;;;6125599;23;20014;-87
2022/01/15 12:17:46;;;;;;;84.70;40.05;;;2.60;99.90;;;;;;6124101;23;20001;-88
2022/01/15 12:20:18;;;;;;;72.90;41.33;;;2.90;99.90;;;;;;6124468;23;20012;-88
2022/01/15 12:22:45;;;;;;;82.60;50.30;;;2.70;99.90;;;;;;6125255;23;20006;-88
2022/01/15 12:25:17;;;;;;;94.78;46.30;;;2.50;99.90;;;;;;6098961;23;20006;-87
2022/01/15 12:27:44;;;;;;;83.38;47.08;;;2.70;99.90;;;;;;6098282;23;20093;-88
2022/01/15 12:30:11;;;;;;;117.22;45.17;;;3.10;99.90;;;;;;6098200;23;20411;-88
2022/01/15 12:32:40;;;;;;;70.03;42.00;;;2.90;99.90;;;;;;6097280;23;20403;-87
2022/01/15 12:35:16;;;;;;;72.82;40.78;;;2.80;99.90;;;;;;6124419;23;20702;-88
2022/01/15 12:38:04;;;;;;;63.80;38.50;;;2.90;99.90;;;;;;6125015;23;20002;-88
2022/01/15 12:40:39;;;;;;;78.28;45.42;;;3.00;99.90;;;;;;6124324;23;20456;-88
2022/01/15 12:43:30;;;;;;;71.40;41.53;;;3.30;99.90;;;;;;6099104;23;20012;-87
2022/01/15 12:46:00;;;;;;;70.75;40.30;;;3.30;99.90;;;;;;6097219;23;20016;-88
2022/01/15 12:48:29;;;;;;;67.90;40.50;;;3.40;99.30;;;;;;6097943;23;20124;-88
2022/01/15 12:51:00;;;;;;;83.88;41.28;;;4.20;99.90;;;;;;6123831;23;20020;-88
2022/01/15 12:53:28;;;;;;;75.07;41.22;;;3.50;99.60;;;;;;6124775;23;20477;-88
2022/01/15 12:55:55;;;;;;;71.22;41.55;;;3.40;99.60;;;;;;6097960;23;20024;-88
2022/01/15 12:58:23;;;;;;;74.72;42.75;;;3.90;97.00;;;;;;6098134;23;20006;-87
2022/01/15 13:00:50;;;;;;;71.30;42.53;;;4.40;99.90;;;;;;6123645;23;20037;-88